createdAt,value
2017-10-07T00:00:29.625Z,101213
2017-10-07T00:02:58.718Z,101217
2017-10-07T00:05:28.766Z,101212
2017-10-07T00:07:59.071Z,101209
2017-10-07T00:10:28.946Z,101207
2017-10-07T00:12:58.815Z,101203
2017-10-07T00:15:27.997Z,101202
2017-10-07T00:17:57.851Z,101203
2017-10-07T00:20:26.933Z,101201
2017-10-07T00:22:57.418Z,101202
2017-10-07T00:25:26.527Z,101199
2017-10-07T00:27:56.300Z,101198
2017-10-07T00:30:27.143Z,101199
2017-10-07T00:32:57.762Z,101198
2017-10-07T00:35:26.934Z,101196
2017-10-07T00:37:56.405Z,101197
2017-10-07T00:40:26.278Z,101195
2017-10-07T00:42:55.447Z,101193
2017-10-07T00:45:25.708Z,101195
2017-10-07T00:47:54.859Z,101189
2017-10-07T00:50:23.988Z,101195
2017-10-07T00:52:53.253Z,101193
2017-10-07T00:55:22.445Z,101192
2017-10-07T00:57:51.685Z,101191
2017-10-07T01:00:21.106Z,101192
2017-10-07T01:02:50.284Z,101188
2017-10-07T01:05:19.579Z,101187
2017-10-07T01:07:50.235Z,101186
2017-10-07T01:10:19.384Z,101182
2017-10-07T01:12:48.543Z,101187
2017-10-07T01:15:17.981Z,101180
2017-10-07T01:17:47.110Z,101178
2017-10-07T01:20:16.278Z,101170
2017-10-07T01:22:46.830Z,101171
2017-10-07T01:25:16.030Z,101160
2017-10-07T01:27:45.200Z,101170
2017-10-07T01:30:16.758Z,101156
2017-10-07T01:32:45.880Z,101164
2017-10-07T01:35:15.795Z,101157
2017-10-07T01:37:46.946Z,101161
2017-10-07T01:40:16.103Z,101157
2017-10-07T01:42:45.264Z,101152
2017-10-07T01:45:14.419Z,101143
2017-10-07T01:47:43.534Z,101141
2017-10-07T01:50:13.409Z,101142
2017-10-07T01:52:43.050Z,101134
2017-10-07T01:55:12.211Z,101135
2017-10-07T01:57:42.091Z,101132
2017-10-07T02:00:11.841Z,101133
2017-10-07T02:02:41.717Z,101135
2017-10-07T02:05:10.843Z,101137
2017-10-07T02:07:39.985Z,101137
2017-10-07T02:10:11.081Z,101142
2017-10-07T02:12:40.676Z,101135
2017-10-07T02:15:10.554Z,101136
2017-10-07T02:17:39.701Z,101136
2017-10-07T02:20:10.404Z,101136
2017-10-07T02:22:39.493Z,101137
2017-10-07T02:25:08.693Z,101140
2017-10-07T02:27:38.404Z,101141
2017-10-07T02:30:07.577Z,101136
2017-10-07T02:32:36.668Z,101138
2017-10-07T02:35:05.802Z,101140
2017-10-07T02:37:35.703Z,101135
2017-10-07T02:40:04.834Z,101135
2017-10-07T02:42:34.821Z,101137
2017-10-07T02:45:03.969Z,101140
2017-10-07T02:47:33.077Z,101131
2017-10-07T02:50:02.514Z,101125
2017-10-07T02:52:32.381Z,101130
2017-10-07T02:55:01.477Z,101127
2017-10-07T02:57:31.439Z,101129
2017-10-07T03:00:00.550Z,101130
2017-10-07T03:02:29.647Z,101131
2017-10-07T03:04:59.308Z,101130
2017-10-07T03:07:28.466Z,101125
2017-10-07T03:09:57.603Z,101129
2017-10-07T03:12:28.442Z,101131
2017-10-07T03:14:57.591Z,101131
2017-10-07T03:17:27.562Z,101130
2017-10-07T03:19:57.088Z,101134
2017-10-07T03:22:26.302Z,101130
2017-10-07T03:24:57.150Z,101124
2017-10-07T03:27:26.337Z,101124
2017-10-07T03:29:56.491Z,101123
2017-10-07T03:32:25.779Z,101119
2017-10-07T03:34:55.801Z,101119
2017-10-07T03:37:25.011Z,101119
2017-10-07T03:39:54.167Z,101111
2017-10-07T03:42:23.945Z,101106
2017-10-07T03:44:53.082Z,101113
2017-10-07T03:47:22.826Z,101103
2017-10-07T03:49:52.906Z,101100
2017-10-07T03:52:22.038Z,101106
2017-10-07T03:54:51.274Z,101109
2017-10-07T03:57:20.537Z,101105
2017-10-07T03:59:49.724Z,101104
2017-10-07T04:02:18.909Z,101101
2017-10-07T04:04:48.515Z,101106
2017-10-07T04:07:17.654Z,101106
2017-10-07T04:09:46.924Z,101102
2017-10-07T04:12:17.279Z,101099
2017-10-07T04:14:46.369Z,101098
2017-10-07T04:17:15.510Z,101088
2017-10-07T04:19:45.463Z,101090
2017-10-07T04:22:14.623Z,101090
2017-10-07T04:24:43.740Z,101089
2017-10-07T04:27:12.865Z,101085
2017-10-07T04:29:41.962Z,101083
2017-10-07T04:32:11.116Z,101083
2017-10-07T04:34:40.924Z,101078
2017-10-07T04:37:10.053Z,101076
2017-10-07T04:39:39.165Z,101072
2017-10-07T04:42:09.452Z,101070
2017-10-07T04:44:38.573Z,101076
2017-10-07T04:47:07.741Z,101074
2017-10-07T04:49:37.300Z,101073
2017-10-07T04:52:06.436Z,101071
2017-10-07T04:54:35.513Z,101072
2017-10-07T04:57:04.960Z,101064
2017-10-07T04:59:34.074Z,101064
2017-10-07T05:02:03.171Z,101069
2017-10-07T05:04:33.558Z,101066
2017-10-07T05:07:03.661Z,101063
2017-10-07T05:09:33.617Z,101062
2017-10-07T05:12:03.087Z,101060
2017-10-07T05:14:32.211Z,101062
2017-10-07T05:17:01.383Z,101060
2017-10-07T05:19:30.917Z,101051
2017-10-07T05:22:00.030Z,101049
2017-10-07T05:24:29.189Z,101044
2017-10-07T05:26:58.730Z,101038
2017-10-07T05:29:27.981Z,101019
2017-10-07T05:31:57.163Z,101016
2017-10-07T05:34:26.463Z,101016
2017-10-07T05:36:55.625Z,101026
2017-10-07T05:39:24.776Z,101012
2017-10-07T05:41:53.930Z,101021
2017-10-07T05:44:23.079Z,101017
2017-10-07T05:46:53.584Z,101016
2017-10-07T05:49:23.035Z,101020
2017-10-07T05:51:52.925Z,101012
2017-10-07T05:54:22.138Z,101017
2017-10-07T05:56:51.632Z,101013
2017-10-07T05:59:20.825Z,101012
2017-10-07T06:01:50.165Z,101005
2017-10-07T06:04:19.823Z,100996
2017-10-07T06:06:48.961Z,100998
2017-10-07T06:09:19.068Z,100998
2017-10-07T06:11:49.582Z,100993
2017-10-07T06:14:18.792Z,100995
2017-10-07T06:16:47.998Z,101002
2017-10-07T06:19:17.299Z,101004
2017-10-07T06:21:46.921Z,101001
2017-10-07T06:24:16.093Z,101002
2017-10-07T06:26:45.399Z,100999
2017-10-07T06:29:15.286Z,100995
2017-10-07T06:31:44.428Z,100991
2017-10-07T06:34:15.188Z,100988
2017-10-07T06:36:44.306Z,100984
2017-10-07T06:39:13.400Z,100982
2017-10-07T06:41:44.040Z,100976
2017-10-07T06:44:13.898Z,100975
2017-10-07T06:46:43.081Z,100973
2017-10-07T06:49:13.263Z,100958
2017-10-07T06:51:42.389Z,100957
2017-10-07T06:54:11.511Z,100949
2017-10-07T06:56:40.647Z,100952
2017-10-07T06:59:10.501Z,100950
2017-10-07T07:01:39.661Z,100950
2017-10-07T07:04:09.143Z,100939
2017-10-07T07:06:38.263Z,100939
2017-10-07T07:09:07.359Z,100942
2017-10-07T07:11:36.769Z,100932
2017-10-07T07:14:05.853Z,100940
2017-10-07T07:16:34.951Z,100940
2017-10-07T07:19:05.262Z,100947
2017-10-07T07:21:34.462Z,100951
2017-10-07T07:24:03.597Z,100952
2017-10-07T07:26:33.505Z,100943
2017-10-07T07:29:02.638Z,100941
2017-10-07T07:31:32.495Z,100942
2017-10-07T07:34:01.642Z,100938
2017-10-07T07:36:30.788Z,100935
2017-10-07T07:38:59.939Z,100932
2017-10-07T07:41:29.241Z,100934
2017-10-07T07:44:00.263Z,100929
2017-10-07T07:46:29.972Z,100933
2017-10-07T07:49:00.365Z,100933
2017-10-07T07:51:29.558Z,100932
2017-10-07T07:53:59.579Z,100928
2017-10-07T07:56:29.518Z,100926
2017-10-07T07:58:58.617Z,100921
2017-10-07T08:01:27.768Z,100925
2017-10-07T08:03:57.519Z,100919
2017-10-07T08:06:26.858Z,100903
2017-10-07T08:08:56.043Z,100900
2017-10-07T08:11:25.549Z,100895
2017-10-07T08:13:54.822Z,100898
2017-10-07T08:16:23.995Z,100890
2017-10-07T08:18:54.560Z,100888
2017-10-07T08:21:24.694Z,100893
2017-10-07T08:23:53.878Z,100884
2017-10-07T08:26:24.302Z,100884
2017-10-07T08:28:54.747Z,100879
2017-10-07T08:31:25.010Z,100883
2017-10-07T08:33:55.131Z,100876
2017-10-07T08:36:24.396Z,100871
2017-10-07T08:38:55.196Z,100863
2017-10-07T08:41:24.562Z,100852
2017-10-07T08:43:53.706Z,100850
2017-10-07T08:46:24.069Z,100844
2017-10-07T08:48:54.986Z,100835
2017-10-07T08:51:24.183Z,100838
2017-10-07T08:53:53.439Z,100831
2017-10-07T08:56:22.959Z,100823
2017-10-07T08:58:52.193Z,100821
2017-10-07T09:01:21.633Z,100816
2017-10-07T09:03:51.171Z,100808
2017-10-07T09:06:20.295Z,100803
2017-10-07T09:08:50.319Z,100797
2017-10-07T09:11:20.714Z,100797
2017-10-07T09:13:50.859Z,100780
2017-10-07T09:16:20.976Z,100772
2017-10-07T09:18:51.862Z,100768
2017-10-07T09:21:21.121Z,100762
2017-10-07T09:23:53.989Z,100754
2017-10-07T09:26:23.902Z,100753
2017-10-07T09:28:53.103Z,100748
2017-10-07T09:31:22.612Z,100743
2017-10-07T09:33:52.029Z,100732
2017-10-07T09:36:21.241Z,100729
2017-10-07T09:38:51.789Z,100733
2017-10-07T09:41:22.317Z,100726
2017-10-07T09:43:51.760Z,100723
2017-10-07T09:46:22.547Z,100720
2017-10-07T09:48:51.895Z,100721
2017-10-07T09:51:22.337Z,100711
2017-10-07T09:53:52.064Z,100700
2017-10-07T09:56:22.061Z,100705
2017-10-07T09:58:51.984Z,100704
2017-10-07T10:01:21.131Z,100694
2017-10-07T10:03:51.227Z,100688
2017-10-07T10:06:20.352Z,100683
2017-10-07T10:08:49.594Z,100675
2017-10-07T10:11:18.794Z,100669
2017-10-07T10:13:47.912Z,100673
2017-10-07T10:16:17.434Z,100673
2017-10-07T10:18:46.561Z,100670
2017-10-07T10:21:15.684Z,100662
2017-10-07T10:23:44.947Z,100658
2017-10-07T10:26:14.054Z,100653
2017-10-07T10:28:43.198Z,100649
2017-10-07T10:31:12.420Z,100642
2017-10-07T10:33:42.363Z,100639
2017-10-07T10:36:12.407Z,100638
2017-10-07T10:38:42.628Z,100639
2017-10-07T10:41:11.754Z,100629
2017-10-07T10:43:40.926Z,100629
2017-10-07T10:46:10.438Z,100617
2017-10-07T10:48:39.582Z,100603
2017-10-07T10:51:08.770Z,100604
2017-10-07T10:53:38.309Z,100607
2017-10-07T10:56:07.474Z,100607
2017-10-07T10:58:36.623Z,100587
2017-10-07T11:01:06.700Z,100588
2017-10-07T11:03:35.868Z,100581
2017-10-07T11:06:05.005Z,100578
2017-10-07T11:08:34.986Z,100572
2017-10-07T11:11:04.149Z,100564
2017-10-07T11:13:33.348Z,100559
2017-10-07T11:16:04.354Z,100545
2017-10-07T11:18:33.708Z,100535
2017-10-07T11:21:03.740Z,100534
2017-10-07T11:23:32.956Z,100530
2017-10-07T11:26:02.112Z,100521
2017-10-07T11:28:31.311Z,100506
2017-10-07T11:31:00.629Z,100498
2017-10-07T11:33:29.764Z,100496
2017-10-07T11:35:58.917Z,100492
2017-10-07T11:38:28.258Z,100499
2017-10-07T11:40:57.482Z,100488
2017-10-07T11:43:26.580Z,100475
2017-10-07T11:45:55.797Z,100467
2017-10-07T11:48:24.913Z,100470
2017-10-07T11:50:54.001Z,100461
2017-10-07T11:53:25.185Z,100460
2017-10-07T11:55:54.302Z,100444
2017-10-07T11:58:23.390Z,100446
2017-10-07T12:00:52.608Z,100440
2017-10-07T12:03:22.485Z,100439
2017-10-07T12:05:52.360Z,100429
2017-10-07T12:08:22.099Z,100421
2017-10-07T12:10:51.212Z,100421
2017-10-07T12:13:20.367Z,100415
2017-10-07T12:15:49.973Z,100407
2017-10-07T12:18:19.078Z,100400
2017-10-07T12:20:48.982Z,100396
2017-10-07T12:23:18.539Z,100389
2017-10-07T12:25:47.639Z,100376
2017-10-07T12:28:17.510Z,100376
2017-10-07T12:30:47.693Z,100368
2017-10-07T12:33:16.840Z,100361
2017-10-07T12:35:46.000Z,100360
2017-10-07T12:38:16.043Z,100351
2017-10-07T12:40:45.168Z,100340
2017-10-07T12:43:14.294Z,100334
2017-10-07T12:45:45.083Z,100331
2017-10-07T12:48:14.209Z,100317
2017-10-07T12:50:44.154Z,100316
2017-10-07T12:53:13.644Z,100309
2017-10-07T12:55:42.769Z,100307
2017-10-07T12:58:12.728Z,100300
2017-10-07T13:00:42.248Z,100292
2017-10-07T13:03:11.809Z,100287
2017-10-07T13:05:43.392Z,100281
2017-10-07T13:08:12.994Z,100278
2017-10-07T13:10:42.091Z,100265
2017-10-07T13:13:11.311Z,100264
2017-10-07T13:15:40.916Z,100252
2017-10-07T13:18:10.029Z,100241
2017-10-07T13:20:39.194Z,100235
2017-10-07T13:23:08.424Z,100225
2017-10-07T13:25:37.669Z,100223
2017-10-07T13:28:06.922Z,100219
2017-10-07T13:30:36.254Z,100213
2017-10-07T13:33:05.441Z,100209
2017-10-07T13:35:34.602Z,100200
2017-10-07T13:38:03.902Z,100191
2017-10-07T13:40:33.113Z,100192
2017-10-07T13:43:02.410Z,100187
2017-10-07T13:45:32.228Z,100189
2017-10-07T13:48:01.550Z,100179
2017-10-07T13:50:30.936Z,100173
2017-10-07T13:53:01.342Z,100169
2017-10-07T13:55:31.446Z,100168
2017-10-07T13:58:00.753Z,100161
2017-10-07T14:00:32.846Z,100158
2017-10-07T14:03:02.925Z,100143
2017-10-07T14:05:32.256Z,100139
2017-10-07T14:08:01.626Z,100138
2017-10-07T14:10:30.896Z,100139
2017-10-07T14:13:01.079Z,100129
2017-10-07T14:15:30.638Z,100116
2017-10-07T14:17:59.870Z,100125
2017-10-07T14:20:30.039Z,100111
2017-10-07T14:23:00.382Z,100110
2017-10-07T14:25:30.504Z,100102
2017-10-07T14:28:00.571Z,100101
2017-10-07T14:30:30.832Z,100090
2017-10-07T14:33:00.994Z,100094
2017-10-07T14:35:31.184Z,100067
2017-10-07T14:38:00.885Z,100071
2017-10-07T14:40:31.201Z,100065
2017-10-07T14:43:00.674Z,100063
2017-10-07T14:45:30.153Z,100068
2017-10-07T14:47:59.665Z,100063
2017-10-07T14:50:29.048Z,100065
2017-10-07T14:52:58.248Z,100058
2017-10-07T14:55:28.231Z,100053
2017-10-07T14:57:58.709Z,100056
2017-10-07T15:00:28.754Z,100049
2017-10-07T15:02:58.244Z,100042
2017-10-07T15:05:27.558Z,100037
2017-10-07T15:07:56.869Z,100044
2017-10-07T15:10:26.018Z,100038
2017-10-07T15:12:55.232Z,100029
2017-10-07T15:15:25.556Z,100030
2017-10-07T15:17:54.713Z,100037
2017-10-07T15:20:24.571Z,100030
2017-10-07T15:22:55.684Z,100035
2017-10-07T15:25:24.876Z,100028
2017-10-07T15:27:56.193Z,100029
2017-10-07T15:30:26.090Z,100021
2017-10-07T15:32:56.062Z,100010
2017-10-07T15:35:26.469Z,100011
2017-10-07T15:37:55.618Z,100002
2017-10-07T15:40:24.779Z,100003
2017-10-07T15:42:55.405Z,99996
2017-10-07T15:45:24.607Z,100000
2017-10-07T15:47:55.352Z,99989
2017-10-07T15:50:24.912Z,99986
2017-10-07T15:52:54.790Z,99980
2017-10-07T15:55:25.186Z,99978
2017-10-07T15:57:54.315Z,99967
2017-10-07T16:00:23.441Z,99970
2017-10-07T16:02:52.919Z,99969
2017-10-07T16:05:22.015Z,99965
2017-10-07T16:07:51.238Z,99963
2017-10-07T16:10:20.520Z,99958
2017-10-07T16:12:49.881Z,99958
2017-10-07T16:15:18.974Z,99961
2017-10-07T16:17:48.219Z,99958
2017-10-07T16:20:17.317Z,99957
2017-10-07T16:22:46.422Z,99952
2017-10-07T16:25:15.950Z,99960
2017-10-07T16:27:45.059Z,99960
2017-10-07T16:30:14.212Z,99948
2017-10-07T16:32:44.100Z,99970
2017-10-07T16:35:13.221Z,99970
2017-10-07T16:37:42.332Z,99969
2017-10-07T16:40:13.532Z,99973
2017-10-07T16:42:42.690Z,99969
2017-10-07T16:45:12.762Z,99959
2017-10-07T16:47:42.709Z,99961
2017-10-07T16:50:12.296Z,99955
2017-10-07T16:52:41.384Z,99955
2017-10-07T16:55:10.983Z,99956
2017-10-07T16:57:40.080Z,99952
2017-10-07T17:00:09.269Z,99950
2017-10-07T17:02:38.572Z,99953
2017-10-07T17:05:07.726Z,99948
2017-10-07T17:07:37.015Z,99951
2017-10-07T17:10:06.379Z,99944
2017-10-07T17:12:36.398Z,99942
2017-10-07T17:15:06.438Z,99942
2017-10-07T17:17:36.646Z,99945
2017-10-07T17:20:05.923Z,99945
2017-10-07T17:22:35.176Z,99944
2017-10-07T17:25:04.753Z,99934
2017-10-07T17:27:35.662Z,99935
2017-10-07T17:30:04.951Z,99938
2017-10-07T17:32:35.523Z,99932
2017-10-07T17:35:04.984Z,99934
2017-10-07T17:37:34.619Z,99941
2017-10-07T17:40:04.028Z,99937
2017-10-07T17:42:33.772Z,99938
2017-10-07T17:45:03.079Z,99941
2017-10-07T17:47:32.872Z,99938
2017-10-07T17:50:02.204Z,99937
2017-10-07T17:52:31.436Z,99937
2017-10-07T17:55:01.613Z,99932
2017-10-07T17:57:30.878Z,99938
2017-10-07T18:00:01.031Z,99936
2017-10-07T18:02:32.508Z,99934
2017-10-07T18:05:02.497Z,99929
2017-10-07T18:07:31.837Z,99925
2017-10-07T18:10:02.227Z,99929
2017-10-07T18:12:31.443Z,99922
2017-10-07T18:15:00.634Z,99930
2017-10-07T18:17:30.822Z,99933
2017-10-07T18:19:59.962Z,99931
2017-10-07T18:22:29.340Z,99932
2017-10-07T18:24:58.606Z,99929
2017-10-07T18:27:27.831Z,99935
2017-10-07T18:29:58.322Z,99932
2017-10-07T18:32:28.683Z,99931
2017-10-07T18:34:57.868Z,99930
2017-10-07T18:37:30.445Z,99935
2017-10-07T18:40:01.446Z,99934
2017-10-07T18:42:30.639Z,99936
2017-10-07T18:44:59.839Z,99931
2017-10-07T18:47:29.985Z,99938
2017-10-07T18:49:59.135Z,99932
2017-10-07T18:52:28.355Z,99937
2017-10-07T18:55:00.145Z,99943
2017-10-07T18:57:30.128Z,99939
2017-10-07T18:59:59.320Z,99945
2017-10-07T19:02:28.529Z,99947
2017-10-07T19:04:57.798Z,99948
2017-10-07T19:07:27.616Z,99949
2017-10-07T19:09:58.094Z,99955
2017-10-07T19:12:27.616Z,99955
2017-10-07T19:14:57.842Z,99954
2017-10-07T19:17:27.043Z,99953
2017-10-07T19:19:57.205Z,99958
2017-10-07T19:22:26.370Z,99957
2017-10-07T19:24:55.637Z,99948
2017-10-07T19:27:25.606Z,99954
2017-10-07T19:29:54.778Z,99956
2017-10-07T19:32:24.265Z,99955
2017-10-07T19:34:53.446Z,99953
2017-10-07T19:37:22.550Z,99965
2017-10-07T19:39:51.712Z,99967
2017-10-07T19:42:20.807Z,99974
2017-10-07T19:44:49.902Z,99973
2017-10-07T19:47:19.049Z,99973
2017-10-07T19:49:48.148Z,99975
2017-10-07T19:52:17.602Z,99963
2017-10-07T19:54:48.076Z,99974
2017-10-07T19:57:17.198Z,99973
2017-10-07T19:59:46.292Z,99973
2017-10-07T20:02:15.821Z,99983
2017-10-07T20:04:44.923Z,99980
2017-10-07T20:07:14.039Z,99986
2017-10-07T20:09:43.501Z,99987
2017-10-07T20:12:12.594Z,99989
2017-10-07T20:14:42.764Z,99989
2017-10-07T20:17:12.988Z,99994
2017-10-07T20:19:42.861Z,99995
2017-10-07T20:22:12.014Z,99992
2017-10-07T20:24:41.162Z,99991
2017-10-07T20:27:10.458Z,99994
2017-10-07T20:29:39.588Z,99998
2017-10-07T20:32:09.958Z,99993
2017-10-07T20:34:39.150Z,100005
2017-10-07T20:37:09.188Z,100011
2017-10-07T20:39:38.430Z,100009
2017-10-07T20:42:08.443Z,100017
2017-10-07T20:44:38.494Z,100023
2017-10-07T20:47:09.222Z,100022
2017-10-07T20:49:38.325Z,100017
2017-10-07T20:52:07.436Z,100020
2017-10-07T20:54:36.612Z,100017
2017-10-07T20:57:05.732Z,100018
2017-10-07T20:59:34.873Z,100022
2017-10-07T21:02:04.441Z,100023
2017-10-07T21:04:33.775Z,100025
2017-10-07T21:07:02.955Z,100030
2017-10-07T21:09:32.579Z,100032
2017-10-07T21:12:01.858Z,100034
2017-10-07T21:14:32.815Z,100043
2017-10-07T21:17:03.203Z,100040
2017-10-07T21:19:32.395Z,100055
2017-10-07T21:22:01.550Z,100060
2017-10-07T21:24:31.076Z,100061
2017-10-07T21:27:00.301Z,100070
2017-10-07T21:29:29.504Z,100065
2017-10-07T21:31:58.853Z,100064
2017-10-07T21:34:28.187Z,100066
2017-10-07T21:36:57.466Z,100061
2017-10-07T21:39:26.727Z,100065
2017-10-07T21:41:55.897Z,100066
2017-10-07T21:44:25.065Z,100070
2017-10-07T21:46:54.311Z,100069
2017-10-07T21:49:23.442Z,100071
2017-10-07T21:51:52.558Z,100075
2017-10-07T21:54:21.807Z,100070
2017-10-07T21:56:50.914Z,100073
2017-10-07T21:59:20.032Z,100076
2017-10-07T22:01:49.618Z,100074
2017-10-07T22:04:18.747Z,100072
2017-10-07T22:06:47.989Z,100071
2017-10-07T22:09:18.198Z,100077
2017-10-07T22:11:47.352Z,100078
2017-10-07T22:14:16.487Z,100082
2017-10-07T22:16:46.203Z,100077
2017-10-07T22:19:15.370Z,100073
2017-10-07T22:21:44.572Z,100085
2017-10-07T22:24:13.711Z,100091
2017-10-07T22:26:43.932Z,100088
2017-10-07T22:29:14.015Z,100093
2017-10-07T22:31:43.319Z,100099
2017-10-07T22:34:12.536Z,100098
2017-10-07T22:36:41.703Z,100103
2017-10-07T22:39:11.770Z,100106
2017-10-07T22:41:41.704Z,100108
2017-10-07T22:44:10.882Z,100109
2017-10-07T22:46:40.445Z,100116
2017-10-07T22:49:09.535Z,100120
2017-10-07T22:51:38.701Z,100116
2017-10-07T22:54:08.271Z,100123
2017-10-07T22:56:37.484Z,100129
2017-10-07T22:59:06.582Z,100130
2017-10-07T23:01:36.337Z,100125
2017-10-07T23:04:05.439Z,100127
2017-10-07T23:06:34.584Z,100133
2017-10-07T23:09:04.683Z,100141
2017-10-07T23:11:33.776Z,100141
2017-10-07T23:14:02.878Z,100140
2017-10-07T23:16:32.787Z,100145
2017-10-07T23:19:01.957Z,100145
2017-10-07T23:21:31.041Z,100145
2017-10-07T23:24:00.176Z,100158
2017-10-07T23:26:30.014Z,100160
2017-10-07T23:28:59.895Z,100172
2017-10-07T23:31:29.169Z,100170
2017-10-07T23:33:58.264Z,100174
2017-10-07T23:36:28.116Z,100177
2017-10-07T23:38:58.369Z,100183
2017-10-07T23:41:27.469Z,100188
2017-10-07T23:43:56.615Z,100193
2017-10-07T23:46:26.450Z,100197
2017-10-07T23:48:56.318Z,100200
2017-10-07T23:51:25.445Z,100203
2017-10-07T23:53:54.687Z,100209
2017-10-07T23:56:23.810Z,100210
2017-10-07T23:58:52.908Z,100209
